createdAt,value
2018-07-05T00:00:16.403Z,26
2018-07-05T00:01:29.862Z,26
2018-07-05T00:02:44.114Z,26
2018-07-05T00:03:59.083Z,26
2018-07-05T00:05:13.877Z,26
2018-07-05T00:06:27.852Z,26
2018-07-05T00:07:42.331Z,26
2018-07-05T00:08:56.573Z,26
2018-07-05T00:10:11.091Z,26
2018-07-05T00:11:25.320Z,26
2018-07-05T00:12:40.070Z,26
2018-07-05T00:13:54.559Z,26
2018-07-05T00:15:08.786Z,26
2018-07-05T00:16:23.561Z,26
2018-07-05T00:17:37.559Z,26
2018-07-05T00:18:51.527Z,26
2018-07-05T00:20:05.718Z,26
2018-07-05T00:21:21.012Z,26
2018-07-05T00:22:35.236Z,26
2018-07-05T00:23:49.965Z,26
2018-07-05T00:25:04.757Z,26
2018-07-05T00:26:19.533Z,26
2018-07-05T00:27:34.260Z,26
2018-07-05T00:28:49.279Z,26
2018-07-05T00:30:03.747Z,26
2018-07-05T00:31:18.015Z,26
2018-07-05T00:32:32.217Z,26
2018-07-05T00:33:46.708Z,26
2018-07-05T00:35:01.385Z,26
2018-07-05T00:36:15.828Z,26
2018-07-05T00:37:29.773Z,26
2018-07-05T00:38:44.797Z,26
2018-07-05T00:39:59.257Z,26
2018-07-05T00:41:14.264Z,26
2018-07-05T00:42:28.689Z,26
2018-07-05T00:43:43.420Z,26
2018-07-05T00:44:58.163Z,26
2018-07-05T00:46:12.763Z,26
2018-07-05T00:47:27.271Z,26
2018-07-05T00:48:41.922Z,26
2018-07-05T00:49:56.367Z,26
2018-07-05T00:51:10.343Z,26
2018-07-05T00:52:24.305Z,26
2018-07-05T00:53:38.796Z,26
2018-07-05T00:54:53.243Z,26
2018-07-05T00:56:08.226Z,26
2018-07-05T00:57:22.712Z,26
2018-07-05T00:58:36.942Z,26
2018-07-05T00:59:51.949Z,26
2018-07-05T01:01:06.390Z,26
2018-07-05T01:02:20.612Z,26
2018-07-05T01:03:34.599Z,26
2018-07-05T01:04:49.337Z,26
2018-07-05T01:06:04.574Z,26
2018-07-05T01:07:18.837Z,26
2018-07-05T01:08:33.038Z,26
2018-07-05T01:09:47.233Z,26
2018-07-05T01:11:01.441Z,26
2018-07-05T01:12:16.206Z,26
2018-07-05T01:13:30.360Z,26
2018-07-05T01:14:45.741Z,26
2018-07-05T01:15:59.989Z,26
2018-07-05T01:17:15.023Z,26
2018-07-05T01:18:30.306Z,26
2018-07-05T01:19:45.000Z,26
2018-07-05T01:20:59.475Z,26
2018-07-05T01:22:13.818Z,26
2018-07-05T01:23:28.708Z,26
2018-07-05T01:24:42.959Z,26
2018-07-05T01:25:57.408Z,26
2018-07-05T01:27:11.856Z,26
2018-07-05T01:28:26.399Z,26
2018-07-05T01:29:40.947Z,26
2018-07-05T01:30:55.758Z,26
2018-07-05T01:32:10.225Z,26
2018-07-05T01:33:24.667Z,26
2018-07-05T01:34:39.425Z,26
2018-07-05T01:35:54.173Z,26
2018-07-05T01:37:08.410Z,26
2018-07-05T01:38:23.573Z,26
2018-07-05T01:39:37.288Z,26
2018-07-05T01:40:51.725Z,26
2018-07-05T01:42:05.931Z,26
2018-07-05T01:43:20.122Z,26
2018-07-05T01:44:35.118Z,26
2018-07-05T01:45:49.293Z,26
2018-07-05T01:47:03.475Z,26
2018-07-05T01:48:18.235Z,26
2018-07-05T01:49:32.983Z,26
2018-07-05T01:50:47.937Z,26
2018-07-05T01:52:02.351Z,26
2018-07-05T01:53:17.009Z,26
2018-07-05T01:54:31.347Z,26
2018-07-05T01:55:45.832Z,26
2018-07-05T01:57:00.548Z,26
2018-07-05T01:58:14.994Z,26
2018-07-05T01:59:29.119Z,26
2018-07-05T02:00:43.966Z,26
2018-07-05T02:01:58.996Z,26
2018-07-05T02:03:13.737Z,26
2018-07-05T02:04:28.618Z,26
2018-07-05T02:05:42.837Z,26
2018-07-05T02:06:58.241Z,26
2018-07-05T02:08:12.854Z,26
2018-07-05T02:09:27.094Z,26
2018-07-05T02:10:41.348Z,26
2018-07-05T02:11:55.783Z,26
2018-07-05T02:13:10.254Z,26
2018-07-05T02:14:25.453Z,26
2018-07-05T02:15:39.910Z,26
2018-07-05T02:16:54.065Z,26
2018-07-05T02:18:08.267Z,26
2018-07-05T02:19:22.567Z,26
2018-07-05T02:20:37.313Z,26
2018-07-05T02:21:52.487Z,26
2018-07-05T02:23:06.959Z,26
2018-07-05T02:24:21.438Z,26
2018-07-05T02:25:35.796Z,26
2018-07-05T02:26:50.502Z,26
2018-07-05T02:28:05.425Z,26
2018-07-05T02:29:20.341Z,26
2018-07-05T02:30:34.776Z,26
2018-07-05T02:31:48.998Z,26
2018-07-05T02:33:03.780Z,26
2018-07-05T02:34:18.270Z,26
2018-07-05T02:35:32.728Z,26
2018-07-05T02:36:46.681Z,26
2018-07-05T02:38:00.854Z,26
2018-07-05T02:39:15.575Z,26
2018-07-05T02:40:29.923Z,26
2018-07-05T02:41:44.676Z,26
2018-07-05T02:42:59.380Z,26
2018-07-05T02:44:13.718Z,26
2018-07-05T02:45:28.337Z,26
2018-07-05T02:46:42.573Z,26
2018-07-05T02:47:56.823Z,26
2018-07-05T02:49:11.536Z,26
2018-07-05T02:50:25.704Z,26
2018-07-05T02:51:40.746Z,26
2018-07-05T02:52:55.921Z,26
2018-07-05T02:54:09.611Z,26
2018-07-05T02:55:24.277Z,26
2018-07-05T02:56:39.040Z,26
2018-07-05T02:57:54.239Z,26
2018-07-05T02:59:08.475Z,26
2018-07-05T03:00:22.971Z,26
2018-07-05T03:01:37.771Z,26
2018-07-05T03:02:52.262Z,26
2018-07-05T03:04:06.808Z,26
2018-07-05T03:05:20.565Z,26
2018-07-05T03:06:35.292Z,26
2018-07-05T03:07:49.771Z,26
2018-07-05T03:09:04.104Z,26
2018-07-05T03:10:18.873Z,26
2018-07-05T03:11:33.113Z,26
2018-07-05T03:12:47.862Z,26
2018-07-05T03:14:02.575Z,26
2018-07-05T03:15:17.312Z,26
2018-07-05T03:16:32.701Z,26
2018-07-05T03:17:47.438Z,26
2018-07-05T03:19:02.420Z,26
2018-07-05T03:20:17.344Z,26
2018-07-05T03:21:31.479Z,26
2018-07-05T03:22:46.096Z,26
2018-07-05T03:24:00.323Z,26
2018-07-05T03:25:15.190Z,26
2018-07-05T03:26:29.187Z,26
2018-07-05T03:27:43.907Z,26
2018-07-05T03:28:58.601Z,26
2018-07-05T03:30:12.879Z,26
2018-07-05T03:31:27.190Z,26
2018-07-05T03:32:41.407Z,26
2018-07-05T03:33:56.407Z,26
2018-07-05T03:35:17.959Z,26
2018-07-05T03:36:32.258Z,26
2018-07-05T03:37:46.999Z,26
2018-07-05T03:39:01.667Z,26
2018-07-05T03:40:15.666Z,26
2018-07-05T03:41:29.918Z,26
2018-07-05T03:42:44.642Z,26
2018-07-05T03:43:58.854Z,26
2018-07-05T03:45:13.842Z,26
2018-07-05T03:46:28.692Z,26
2018-07-05T03:47:43.660Z,26
2018-07-05T03:48:57.839Z,26
2018-07-05T03:50:12.288Z,26
2018-07-05T03:51:26.766Z,26
2018-07-05T03:52:41.098Z,26
2018-07-05T03:53:55.822Z,26
2018-07-05T03:55:10.317Z,26
2018-07-05T03:56:24.798Z,26
2018-07-05T03:57:39.423Z,26
2018-07-05T03:58:54.273Z,26
2018-07-05T04:00:09.306Z,26
2018-07-05T04:01:24.015Z,26
2018-07-05T04:02:38.659Z,26
2018-07-05T04:03:53.201Z,27
2018-07-05T04:05:07.919Z,27
2018-07-05T04:06:22.924Z,27
2018-07-05T04:07:37.398Z,27
2018-07-05T04:08:52.259Z,27
2018-07-05T04:10:06.735Z,27
2018-07-05T04:11:21.217Z,27
2018-07-05T04:12:36.384Z,27
2018-07-05T04:13:50.813Z,28
2018-07-05T04:15:06.251Z,28
2018-07-05T04:16:20.714Z,28
2018-07-05T04:17:35.695Z,28
2018-07-05T04:18:50.158Z,28
2018-07-05T04:20:04.400Z,29
2018-07-05T04:21:18.926Z,29
2018-07-05T04:22:33.647Z,29
2018-07-05T04:23:48.576Z,29
2018-07-05T04:25:02.947Z,29
2018-07-05T04:26:17.682Z,30
2018-07-05T04:27:31.669Z,30
2018-07-05T04:28:46.707Z,30
2018-07-05T04:30:01.013Z,30
2018-07-05T04:31:16.005Z,30
2018-07-05T04:32:29.961Z,31
2018-07-05T04:33:44.916Z,31
2018-07-05T04:34:59.183Z,31
2018-07-05T04:36:13.405Z,31
2018-07-05T04:37:28.788Z,31
2018-07-05T04:38:43.661Z,31
2018-07-05T04:39:57.647Z,31
2018-07-05T04:41:11.905Z,31
2018-07-05T04:42:26.829Z,31
2018-07-05T04:43:42.314Z,32
2018-07-05T04:44:57.294Z,32
2018-07-05T04:46:12.053Z,32
2018-07-05T04:47:26.271Z,32
2018-07-05T04:48:40.748Z,32
2018-07-05T04:49:55.571Z,32
2018-07-05T04:51:10.304Z,32
2018-07-05T04:52:25.863Z,32
2018-07-05T04:53:39.865Z,32
2018-07-05T04:54:54.660Z,32
2018-07-05T04:56:09.141Z,32
2018-07-05T04:57:23.999Z,33
2018-07-05T04:58:39.062Z,33
2018-07-05T04:59:54.357Z,33
2018-07-05T05:01:09.387Z,33
2018-07-05T05:02:24.281Z,33
2018-07-05T05:03:38.776Z,33
2018-07-05T05:04:53.123Z,33
2018-07-05T05:06:07.711Z,33
2018-07-05T05:07:22.250Z,33
2018-07-05T05:08:37.304Z,34
2018-07-05T05:09:52.170Z,34
2018-07-05T05:11:06.902Z,34
2018-07-05T05:12:21.413Z,34
2018-07-05T05:13:35.909Z,34
2018-07-05T05:14:50.571Z,34
2018-07-05T05:16:05.019Z,34
2018-07-05T05:17:19.959Z,34
2018-07-05T05:18:33.961Z,34
2018-07-05T05:19:48.311Z,34
2018-07-05T05:21:03.308Z,35
2018-07-05T05:22:17.328Z,35
2018-07-05T05:23:31.853Z,35
2018-07-05T05:24:46.576Z,35
2018-07-05T05:26:00.812Z,35
2018-07-05T05:27:15.657Z,35
2018-07-05T05:28:29.896Z,35
2018-07-05T05:29:44.405Z,35
2018-07-05T05:30:58.893Z,35
2018-07-05T05:32:12.851Z,35
2018-07-05T05:33:27.899Z,35
2018-07-05T05:34:42.849Z,35
2018-07-05T05:35:57.747Z,35
2018-07-05T05:37:11.464Z,35
2018-07-05T05:38:26.404Z,35
2018-07-05T05:39:41.207Z,35
2018-07-05T05:40:56.565Z,35
2018-07-05T05:42:11.308Z,34
2018-07-05T05:43:25.840Z,34
2018-07-05T05:44:40.299Z,34
2018-07-05T05:45:54.858Z,33
2018-07-05T05:47:09.604Z,33
2018-07-05T05:48:24.520Z,33
2018-07-05T05:49:39.544Z,32
2018-07-05T05:50:54.443Z,32
2018-07-05T05:52:10.013Z,32
2018-07-05T05:53:24.778Z,32
2018-07-05T05:54:39.169Z,31
2018-07-05T05:55:54.185Z,31
2018-07-05T05:57:08.454Z,31
2018-07-05T05:58:22.737Z,31
2018-07-05T05:59:37.232Z,31
2018-07-05T06:00:51.691Z,31
2018-07-05T06:02:06.775Z,30
2018-07-05T06:03:21.775Z,30
2018-07-05T06:04:36.262Z,30
2018-07-05T06:05:50.568Z,30
2018-07-05T06:07:05.340Z,30
2018-07-05T06:08:20.313Z,30
2018-07-05T06:09:34.756Z,30
2018-07-05T06:10:49.547Z,30
2018-07-05T06:12:04.337Z,30
2018-07-05T06:13:19.323Z,30
2018-07-05T06:14:34.078Z,30
2018-07-05T06:15:48.811Z,29
2018-07-05T06:17:03.331Z,29
2018-07-05T06:18:17.585Z,29
2018-07-05T06:19:32.090Z,29
2018-07-05T06:20:46.810Z,29
2018-07-05T06:22:02.180Z,29
2018-07-05T06:23:16.448Z,29
2018-07-05T06:24:30.930Z,29
2018-07-05T06:25:46.118Z,29
2018-07-05T06:27:00.911Z,29
2018-07-05T06:28:15.144Z,29
2018-07-05T06:29:29.649Z,29
2018-07-05T06:30:44.427Z,29
2018-07-05T06:31:59.228Z,29
2018-07-05T06:33:14.491Z,29
2018-07-05T06:34:35.532Z,29
2018-07-05T06:35:50.102Z,29
2018-07-05T06:37:04.738Z,29
2018-07-05T06:38:19.024Z,29
2018-07-05T06:39:33.955Z,29
2018-07-05T06:40:48.745Z,29
2018-07-05T06:42:03.929Z,29
2018-07-05T06:43:18.180Z,29
2018-07-05T06:44:32.943Z,29
2018-07-05T06:45:47.669Z,29
2018-07-05T06:47:02.954Z,29
2018-07-05T06:48:17.772Z,29
2018-07-05T06:49:32.432Z,29
2018-07-05T06:50:46.934Z,29
2018-07-05T06:52:01.983Z,29
2018-07-05T06:53:17.412Z,29
2018-07-05T06:54:32.453Z,29
2018-07-05T06:55:46.700Z,29
2018-07-05T06:57:01.018Z,29
2018-07-05T06:58:16.386Z,29
2018-07-05T06:59:31.017Z,29
2018-07-05T07:00:45.245Z,29
2018-07-05T07:01:59.987Z,29
2018-07-05T07:03:15.017Z,29
2018-07-05T07:04:29.633Z,29
2018-07-05T07:05:44.507Z,29
2018-07-05T07:06:58.776Z,29
2018-07-05T07:08:13.960Z,29
2018-07-05T07:09:29.075Z,29
